createdAt,value
2019-05-02T00:02:24.079Z,11.35
2019-05-02T00:04:55.796Z,17.10
2019-05-02T00:07:26.639Z,11.28
2019-05-02T00:09:57.111Z,9.88
2019-05-02T00:12:27.422Z,11.78
2019-05-02T00:15:01.822Z,10.88
2019-05-02T00:17:31.532Z,12.58
2019-05-02T00:20:01.753Z,10.95
2019-05-02T00:22:31.947Z,8.55
2019-05-02T00:25:02.064Z,12.60
2019-05-02T00:27:37.764Z,9.18
2019-05-02T00:30:06.502Z,14.38
2019-05-02T00:32:37.011Z,10.30
2019-05-02T00:35:07.479Z,10.32
2019-05-02T00:37:37.830Z,12.45
2019-05-02T00:40:08.941Z,9.10
2019-05-02T00:42:39.227Z,14.20
2019-05-02T00:45:09.467Z,12.82
2019-05-02T00:47:58.633Z,13.75
2019-05-02T00:50:32.010Z,15.38
2019-05-02T00:53:02.129Z,10.58
2019-05-02T00:55:33.796Z,12.28
2019-05-02T00:58:04.146Z,9.98
2019-05-02T01:00:48.677Z,9.28
2019-05-02T01:03:18.886Z,11.28
2019-05-02T01:05:49.018Z,18.15
2019-05-02T01:08:19.250Z,9.75
2019-05-02T01:10:52.193Z,9.68
2019-05-02T01:13:21.502Z,11.95
2019-05-02T01:15:51.643Z,9.65
2019-05-02T01:18:24.058Z,10.15
2019-05-02T01:20:58.200Z,11.28
2019-05-02T01:23:27.739Z,13.15
2019-05-02T01:25:57.951Z,12.33
2019-05-02T01:28:54.276Z,16.15
2019-05-02T01:31:34.802Z,13.65
2019-05-02T01:34:42.539Z,22.85
2019-05-02T01:37:22.911Z,10.23
2019-05-02T01:39:53.403Z,10.20
2019-05-02T01:42:23.596Z,12.68
2019-05-02T01:44:53.827Z,10.25
2019-05-02T01:47:24.151Z,7.87
2019-05-02T01:49:57.256Z,12.53
2019-05-02T01:52:26.305Z,12.60
2019-05-02T01:54:56.442Z,12.05
2019-05-02T01:57:26.586Z,13.25
2019-05-02T01:59:56.718Z,8.45
2019-05-02T02:02:28.053Z,11.53
2019-05-02T02:04:59.005Z,11.22
2019-05-02T02:07:29.324Z,7.15
2019-05-02T02:09:59.609Z,8.28
2019-05-02T02:12:29.891Z,15.38
2019-05-02T02:15:04.835Z,9.35
2019-05-02T02:17:35.163Z,15.28
2019-05-02T02:20:09.745Z,8.05
2019-05-02T02:22:47.770Z,11.90
2019-05-02T02:25:32.195Z,11.88
2019-05-02T02:28:02.640Z,9.35
2019-05-02T02:30:32.767Z,13.32
2019-05-02T02:33:07.764Z,12.93
2019-05-02T02:35:34.816Z,11.10
2019-05-02T02:38:05.013Z,10.35
2019-05-02T02:40:35.691Z,12.47
2019-05-02T02:43:30.252Z,16.55
2019-05-02T02:46:00.358Z,16.05
2019-05-02T02:48:33.589Z,18.75
2019-05-02T02:51:03.202Z,11.68
2019-05-02T02:53:33.392Z,22.15
2019-05-02T02:56:07.164Z,9.35
2019-05-02T02:58:45.298Z,24.40
2019-05-02T03:01:09.643Z,14.60
2019-05-02T03:03:39.960Z,10.88
2019-05-02T03:06:10.272Z,11.00
2019-05-02T03:08:46.229Z,14.63
2019-05-02T03:11:22.354Z,12.55
2019-05-02T03:14:07.432Z,16.02
2019-05-02T03:16:46.201Z,9.00
2019-05-02T03:19:14.720Z,22.93
2019-05-02T03:21:54.321Z,13.30
2019-05-02T03:24:26.416Z,12.40
2019-05-02T03:26:58.729Z,12.73
2019-05-02T03:29:39.105Z,13.25
2019-05-02T03:32:13.496Z,12.40
2019-05-02T03:34:46.544Z,15.18
2019-05-02T03:37:10.043Z,11.78
2019-05-02T03:39:38.468Z,11.75
2019-05-02T03:42:08.614Z,16.60
2019-05-02T03:44:39.810Z,14.68
2019-05-02T03:47:10.155Z,11.93
2019-05-02T03:49:48.535Z,11.55
2019-05-02T03:52:13.304Z,10.75
2019-05-02T03:54:50.261Z,13.58
2019-05-02T03:57:16.592Z,10.43
2019-05-02T03:59:46.757Z,12.15
2019-05-02T04:02:20.266Z,9.45
2019-05-02T04:04:54.250Z,13.53
2019-05-02T04:07:21.739Z,11.93
2019-05-02T04:09:52.469Z,11.60
2019-05-02T04:12:23.696Z,14.35
2019-05-02T04:14:55.960Z,10.68
2019-05-02T04:17:28.625Z,11.22
2019-05-02T04:19:59.453Z,13.72
2019-05-02T04:22:30.478Z,16.05
2019-05-02T04:25:06.042Z,12.25
2019-05-02T04:27:35.887Z,15.05
2019-05-02T04:30:11.217Z,17.73
2019-05-02T04:32:42.973Z,13.78
2019-05-02T04:35:11.431Z,13.88
2019-05-02T04:37:43.781Z,26.68
2019-05-02T04:40:14.171Z,13.20
2019-05-02T04:42:44.437Z,14.75
2019-05-02T04:45:28.292Z,10.68
2019-05-02T04:47:54.750Z,16.65
2019-05-02T04:50:24.974Z,13.32
2019-05-02T04:52:53.794Z,15.40
2019-05-02T04:55:28.983Z,11.93
2019-05-02T04:57:54.278Z,12.25
2019-05-02T05:00:28.802Z,11.80
2019-05-02T05:02:59.124Z,11.35
2019-05-02T05:05:31.392Z,13.58
2019-05-02T05:08:01.064Z,12.98
2019-05-02T05:10:40.200Z,18.70
2019-05-02T05:13:03.232Z,11.00
2019-05-02T05:15:41.108Z,12.82
2019-05-02T05:18:10.417Z,12.23
2019-05-02T05:20:38.567Z,12.70
2019-05-02T05:23:09.242Z,13.90
2019-05-02T05:25:55.771Z,13.32
2019-05-02T05:28:27.266Z,11.68
2019-05-02T05:30:58.351Z,13.50
2019-05-02T05:33:28.509Z,9.63
2019-05-02T05:35:58.604Z,13.48
2019-05-02T05:38:32.627Z,10.15
2019-05-02T05:41:02.984Z,10.68
2019-05-02T05:43:32.651Z,14.23
2019-05-02T05:46:12.318Z,17.70
2019-05-02T05:48:37.184Z,15.53
2019-05-02T05:51:07.242Z,10.63
2019-05-02T05:53:37.677Z,10.55
2019-05-02T05:56:08.063Z,13.23
2019-05-02T05:58:39.758Z,14.80
2019-05-02T06:01:10.540Z,10.47
2019-05-02T06:03:44.635Z,10.67
2019-05-02T06:06:14.730Z,11.83
2019-05-02T06:08:49.297Z,12.90
2019-05-02T06:11:19.982Z,10.93
2019-05-02T06:13:50.696Z,13.53
2019-05-02T06:16:21.077Z,12.27
2019-05-02T06:18:51.548Z,13.80
2019-05-02T06:21:21.690Z,16.43
2019-05-02T06:23:51.928Z,14.17
2019-05-02T06:26:22.055Z,13.27
2019-05-02T06:28:52.358Z,9.83
2019-05-02T06:31:22.498Z,10.97
2019-05-02T06:33:52.648Z,11.23
2019-05-02T06:36:22.764Z,13.00
2019-05-02T06:38:56.600Z,14.10
2019-05-02T06:41:24.723Z,10.80
2019-05-02T06:43:55.149Z,12.50
2019-05-02T06:46:27.835Z,12.27
2019-05-02T06:48:58.226Z,16.50
2019-05-02T06:51:29.524Z,13.23
2019-05-02T06:53:59.680Z,13.23
2019-05-02T06:56:29.836Z,14.97
2019-05-02T06:59:01.660Z,14.03
2019-05-02T07:01:31.810Z,15.77
2019-05-02T07:04:04.238Z,10.60
2019-05-02T07:06:42.443Z,15.20
2019-05-02T07:09:07.952Z,18.80
2019-05-02T07:11:38.858Z,12.13
2019-05-02T07:14:13.373Z,16.73
2019-05-02T07:17:05.780Z,14.37
2019-05-02T07:19:42.501Z,14.33
2019-05-02T07:22:12.887Z,16.77
2019-05-02T07:24:43.321Z,19.17
2019-05-02T07:27:14.717Z,18.20
2019-05-02T07:29:45.884Z,19.47
2019-05-02T07:32:19.167Z,19.00
2019-05-02T07:34:48.367Z,11.83
2019-05-02T07:37:19.511Z,14.07
2019-05-02T07:39:49.653Z,10.90
2019-05-02T07:42:19.742Z,16.53
2019-05-02T07:44:51.106Z,13.10
2019-05-02T07:47:21.251Z,11.37
2019-05-02T07:49:51.497Z,12.10
2019-05-02T07:52:21.619Z,13.63
2019-05-02T07:54:56.150Z,9.33
2019-05-02T07:57:30.538Z,12.47
2019-05-02T08:00:04.974Z,11.30
2019-05-02T08:02:35.876Z,8.70
2019-05-02T08:05:08.956Z,12.10
2019-05-02T08:07:39.454Z,12.20
2019-05-02T08:10:10.171Z,10.03
2019-05-02T08:12:40.341Z,12.40
2019-05-02T08:15:13.132Z,9.90
2019-05-02T08:17:42.815Z,12.13
2019-05-02T08:20:13.696Z,13.57
2019-05-02T08:22:48.922Z,9.07
2019-05-02T08:25:17.351Z,8.73
2019-05-02T08:28:10.034Z,10.50
2019-05-02T08:30:44.074Z,13.57
2019-05-02T08:33:14.294Z,11.50
2019-05-02T08:35:45.597Z,11.27
2019-05-02T08:38:17.907Z,13.00
2019-05-02T08:40:49.630Z,12.57
2019-05-02T08:43:19.840Z,14.57
2019-05-02T08:45:49.967Z,9.03
2019-05-02T08:48:22.589Z,13.03
2019-05-02T08:50:52.348Z,15.27
2019-05-02T08:53:22.584Z,13.40
2019-05-02T08:55:52.694Z,8.37
2019-05-02T08:58:22.854Z,12.03
2019-05-02T09:00:53.017Z,11.17
2019-05-02T09:03:23.435Z,10.93
2019-05-02T09:06:05.323Z,10.70
2019-05-02T09:08:25.754Z,13.10
2019-05-02T09:10:58.741Z,10.77
2019-05-02T09:13:29.554Z,14.93
2019-05-02T09:16:02.697Z,11.03
2019-05-02T09:18:38.277Z,9.77
2019-05-02T09:21:03.904Z,11.63
2019-05-02T09:23:37.072Z,14.37
2019-05-02T09:26:06.095Z,14.27
2019-05-02T09:28:36.271Z,14.87
2019-05-02T09:31:06.989Z,15.73
2019-05-02T09:33:42.373Z,10.80
2019-05-02T09:36:09.464Z,17.73
2019-05-02T09:38:39.808Z,16.50
2019-05-02T09:41:16.951Z,19.23
2019-05-02T09:43:42.611Z,19.10
2019-05-02T09:46:16.628Z,20.13
2019-05-02T09:48:44.939Z,25.50
2019-05-02T09:51:17.363Z,21.23
2019-05-02T09:53:47.578Z,18.23
2019-05-02T09:56:17.884Z,21.63
2019-05-02T09:58:49.343Z,18.87
2019-05-02T10:01:35.775Z,21.43
2019-05-02T10:04:06.449Z,17.43
2019-05-02T10:06:36.584Z,25.93
2019-05-02T10:09:12.086Z,23.20
2019-05-02T10:11:42.697Z,19.03
2019-05-02T10:14:13.680Z,22.97
2019-05-02T10:16:43.926Z,22.67
2019-05-02T10:19:14.304Z,21.70
2019-05-02T10:21:47.137Z,18.87
2019-05-02T10:24:16.765Z,22.60
2019-05-02T10:26:46.985Z,21.30
2019-05-02T10:29:22.773Z,19.73
2019-05-02T10:31:49.007Z,24.63
2019-05-02T10:34:19.376Z,22.50
2019-05-02T10:36:53.689Z,17.33
2019-05-02T10:39:23.537Z,20.70
2019-05-02T10:41:53.420Z,19.17
2019-05-02T10:44:27.136Z,19.50
2019-05-02T10:46:59.241Z,16.07
2019-05-02T10:49:50.213Z,25.20
2019-05-02T10:52:29.731Z,18.23
2019-05-02T10:54:53.791Z,19.50
2019-05-02T10:57:23.948Z,17.93
2019-05-02T10:59:56.131Z,18.40
2019-05-02T11:02:44.061Z,17.53
2019-05-02T11:05:24.710Z,20.63
2019-05-02T11:07:49.000Z,15.80
2019-05-02T11:10:19.315Z,23.63
2019-05-02T11:13:01.983Z,22.43
2019-05-02T11:16:12.472Z,26.10
2019-05-02T11:19:21.390Z,21.10
2019-05-02T11:21:56.428Z,20.97
2019-05-02T11:24:23.963Z,20.83
2019-05-02T11:26:54.491Z,16.77
2019-05-02T11:29:25.304Z,16.80
2019-05-02T11:31:55.460Z,13.33
2019-05-02T11:34:25.760Z,12.70
2019-05-02T11:36:56.011Z,13.93
2019-05-02T11:39:35.727Z,14.00
2019-05-02T11:41:58.297Z,16.17
2019-05-02T11:44:28.498Z,10.47
2019-05-02T11:46:58.746Z,14.73
2019-05-02T11:49:28.900Z,13.20
2019-05-02T11:52:03.888Z,16.00
2019-05-02T11:54:32.303Z,14.00
2019-05-02T11:57:02.562Z,13.73
2019-05-02T11:59:32.667Z,16.07
2019-05-02T12:02:24.824Z,11.63
2019-05-02T12:04:55.647Z,9.97
2019-05-02T12:07:27.658Z,11.30
2019-05-02T12:09:58.010Z,10.30
2019-05-02T12:12:32.490Z,10.50
2019-05-02T12:15:02.395Z,9.67
2019-05-02T12:17:32.622Z,12.50
2019-05-02T12:20:03.336Z,10.97
2019-05-02T12:22:34.729Z,9.53
2019-05-02T12:25:04.896Z,12.07
2019-05-02T12:27:35.035Z,8.80
2019-05-02T12:30:05.346Z,13.87
2019-05-02T12:32:35.526Z,12.17
2019-05-02T12:35:06.287Z,16.03
2019-05-02T12:37:36.439Z,12.03
2019-05-02T12:40:06.897Z,15.20
2019-05-02T12:42:37.220Z,14.60
2019-05-02T12:45:08.310Z,9.17
2019-05-02T12:47:38.481Z,12.40
2019-05-02T12:50:09.789Z,11.17
2019-05-02T12:52:40.003Z,10.30
2019-05-02T12:55:12.621Z,15.33
2019-05-02T12:57:42.990Z,15.87
2019-05-02T13:00:13.642Z,12.67
2019-05-02T13:03:02.805Z,9.00
2019-05-02T13:05:32.953Z,12.40
2019-05-02T13:08:03.442Z,11.37
2019-05-02T13:10:42.498Z,10.90
2019-05-02T13:13:12.718Z,12.20
2019-05-02T13:15:43.036Z,10.30
2019-05-02T13:18:13.146Z,11.40
2019-05-02T13:20:43.670Z,8.80
2019-05-02T13:23:37.266Z,11.27
2019-05-02T13:26:18.211Z,13.50
2019-05-02T13:28:42.351Z,10.33
2019-05-02T13:31:28.887Z,12.53
2019-05-02T13:34:06.464Z,15.10
2019-05-02T13:36:43.458Z,14.50
2019-05-02T13:39:22.092Z,17.10
2019-05-02T13:41:52.325Z,15.03
2019-05-02T13:44:28.961Z,12.20
2019-05-02T13:46:58.022Z,15.07
2019-05-02T13:49:28.343Z,13.53
2019-05-02T13:51:58.719Z,12.03
2019-05-02T13:54:29.255Z,13.10
2019-05-02T13:56:59.361Z,13.90
2019-05-02T13:59:29.510Z,13.47
2019-05-02T14:02:02.754Z,9.07
2019-05-02T14:04:33.197Z,15.40
2019-05-02T14:07:07.569Z,13.37
2019-05-02T14:09:58.090Z,14.07
2019-05-02T14:12:42.258Z,14.23
2019-05-02T14:15:13.764Z,15.67
2019-05-02T14:17:44.137Z,11.83
2019-05-02T14:20:15.855Z,12.07
2019-05-02T14:22:46.168Z,11.63
2019-05-02T14:25:16.585Z,13.17
2019-05-02T14:27:46.925Z,13.77
2019-05-02T14:30:35.663Z,15.97
2019-05-02T14:32:53.258Z,15.00
2019-05-02T14:35:28.335Z,12.40
2019-05-02T14:38:08.774Z,11.60
2019-05-02T14:41:00.275Z,14.97
2019-05-02T14:43:48.395Z,12.50
2019-05-02T14:46:21.993Z,13.93
2019-05-02T14:48:52.524Z,12.77
2019-05-02T14:51:27.582Z,15.57
2019-05-02T14:54:05.796Z,18.80
2019-05-02T14:56:37.519Z,16.80
2019-05-02T14:59:09.273Z,11.90
2019-05-02T15:01:42.099Z,10.20
2019-05-02T15:04:12.986Z,11.00
2019-05-02T15:06:47.312Z,14.70
2019-05-02T15:09:16.647Z,16.93
2019-05-02T15:11:59.351Z,20.30
2019-05-02T15:14:32.870Z,21.53
2019-05-02T15:17:05.370Z,18.73
2019-05-02T15:19:35.686Z,17.53
2019-05-02T15:22:06.110Z,13.40
2019-05-02T15:24:38.004Z,11.93
2019-05-02T15:27:16.542Z,10.33
2019-05-02T15:29:42.006Z,9.23
2019-05-02T15:32:44.937Z,9.03
2019-05-02T15:35:42.557Z,7.20
2019-05-02T15:38:20.706Z,5.40
2019-05-02T15:40:50.043Z,5.80
2019-05-02T15:43:16.721Z,4.03
2019-05-02T15:45:46.843Z,4.33
2019-05-02T15:48:25.564Z,5.03
2019-05-02T15:50:53.090Z,5.77
2019-05-02T15:53:29.470Z,8.03
2019-05-02T15:55:59.573Z,2.90
2019-05-02T15:58:29.721Z,10.30
2019-05-02T16:01:19.061Z,4.87
2019-05-02T16:03:52.291Z,5.60
2019-05-02T16:06:30.580Z,5.00
2019-05-02T16:08:54.799Z,3.73
2019-05-02T16:11:24.965Z,4.00
2019-05-02T16:13:55.995Z,4.83
2019-05-02T16:16:26.469Z,4.80
2019-05-02T16:18:56.702Z,5.83
2019-05-02T16:21:44.623Z,6.80
2019-05-02T16:24:22.861Z,4.77
2019-05-02T16:26:57.205Z,7.73
2019-05-02T16:29:28.903Z,3.60
2019-05-02T16:32:10.198Z,4.47
2019-05-02T16:34:55.315Z,7.70
2019-05-02T16:37:25.858Z,8.57
2019-05-02T16:39:56.103Z,6.60
2019-05-02T16:42:26.258Z,11.23
2019-05-02T16:44:56.437Z,6.80
2019-05-02T16:47:26.587Z,16.47
2019-05-02T16:49:56.745Z,5.80
2019-05-02T16:52:26.953Z,9.10
2019-05-02T16:54:57.102Z,7.07
2019-05-02T16:57:27.301Z,5.97
2019-05-02T17:00:01.351Z,9.67
2019-05-02T17:02:29.284Z,7.30
2019-05-02T17:05:00.155Z,7.70
2019-05-02T17:07:43.466Z,7.30
2019-05-02T17:10:22.444Z,14.43
2019-05-02T17:12:56.597Z,7.70
2019-05-02T17:15:36.531Z,8.80
2019-05-02T17:18:17.888Z,11.20
2019-05-02T17:20:39.693Z,10.27
2019-05-02T17:23:09.837Z,10.53
2019-05-02T17:25:41.607Z,12.77
2019-05-02T17:28:13.338Z,7.90
2019-05-02T17:30:43.585Z,11.10
2019-05-02T17:33:16.322Z,11.07
2019-05-02T17:35:49.797Z,17.63
2019-05-02T17:38:19.070Z,20.50
2019-05-02T17:40:52.367Z,17.13
2019-05-02T17:43:22.713Z,15.53
2019-05-02T17:45:53.070Z,14.83
2019-05-02T17:48:24.565Z,11.75
2019-05-02T17:51:16.511Z,17.05
2019-05-02T17:53:49.786Z,18.40
2019-05-02T17:56:20.942Z,17.50
2019-05-02T17:58:54.274Z,17.33
2019-05-02T18:01:31.877Z,13.77
2019-05-02T18:04:06.734Z,14.38
2019-05-02T18:06:35.751Z,13.90
2019-05-02T18:09:08.995Z,14.83
2019-05-02T18:11:39.510Z,16.77
2019-05-02T18:14:18.420Z,14.60
2019-05-02T18:16:41.977Z,17.75
2019-05-02T18:19:15.971Z,15.73
2019-05-02T18:21:44.095Z,10.85
2019-05-02T18:24:15.961Z,17.25
2019-05-02T18:26:46.237Z,14.17
2019-05-02T18:29:16.657Z,19.10
2019-05-02T18:31:47.644Z,12.25
2019-05-02T18:34:21.071Z,21.27
2019-05-02T18:36:49.844Z,13.90
2019-05-02T18:39:22.081Z,17.27
2019-05-02T18:41:54.927Z,13.07
2019-05-02T18:44:24.347Z,21.43
2019-05-02T18:46:57.795Z,16.90
2019-05-02T18:49:27.915Z,22.70
2019-05-02T18:51:58.832Z,21.83
2019-05-02T18:54:29.055Z,16.17
2019-05-02T18:57:02.396Z,18.33
2019-05-02T18:59:33.372Z,20.77
2019-05-02T19:02:03.671Z,19.20
2019-05-02T19:04:38.185Z,23.13
2019-05-02T19:07:07.476Z,23.07
2019-05-02T19:09:48.433Z,20.17
2019-05-02T19:12:19.446Z,18.80
2019-05-02T19:14:42.344Z,22.83
2019-05-02T19:17:12.577Z,18.37
2019-05-02T19:19:42.880Z,22.77
2019-05-02T19:22:16.829Z,25.82
2019-05-02T19:24:45.104Z,26.23
2019-05-02T19:27:20.997Z,30.33
2019-05-02T19:29:49.517Z,23.83
2019-05-02T19:32:25.510Z,23.02
2019-05-02T19:34:53.179Z,26.12
2019-05-02T19:37:23.378Z,27.15
2019-05-02T19:39:56.763Z,24.65
2019-05-02T19:42:26.509Z,31.40
2019-05-02T19:44:56.715Z,29.15
2019-05-02T19:47:28.728Z,25.53
2019-05-02T19:49:58.980Z,29.02
2019-05-02T19:52:37.207Z,34.98
2019-05-02T19:55:01.574Z,27.13
2019-05-02T19:57:32.480Z,32.08
2019-05-02T20:00:06.400Z,36.42
2019-05-02T20:02:37.533Z,32.23
2019-05-02T20:05:07.847Z,33.73
2019-05-02T20:07:38.130Z,31.37
2019-05-02T20:10:08.695Z,34.33
2019-05-02T20:12:42.420Z,28.42
2019-05-02T20:15:12.304Z,34.15
2019-05-02T20:17:42.623Z,32.10
2019-05-02T20:20:35.961Z,33.73
2019-05-02T20:23:15.503Z,39.88
2019-05-02T20:25:39.181Z,32.28
2019-05-02T20:28:09.748Z,35.17
2019-05-02T20:30:42.019Z,39.73
2019-05-02T20:33:12.868Z,44.48
2019-05-02T20:35:43.203Z,38.92
2019-05-02T20:38:13.656Z,40.45
2019-05-02T20:40:43.948Z,49.25
2019-05-02T20:43:14.116Z,42.65
2019-05-02T20:45:46.168Z,45.20
2019-05-02T20:48:16.436Z,48.33
2019-05-02T20:50:46.569Z,46.28
2019-05-02T20:53:28.028Z,49.98
2019-05-02T20:55:48.815Z,44.40
2019-05-02T20:58:19.015Z,47.10
2019-05-02T21:01:04.535Z,48.75
2019-05-02T21:03:21.787Z,53.08
2019-05-02T21:06:14.238Z,47.78
2019-05-02T21:08:52.582Z,62.65
2019-05-02T21:11:24.090Z,46.92
2019-05-02T21:13:54.333Z,48.20
2019-05-02T21:16:24.534Z,49.55
2019-05-02T21:18:54.891Z,42.58
2019-05-02T21:21:26.327Z,52.23
2019-05-02T21:23:56.602Z,50.25
2019-05-02T21:26:26.735Z,46.90
2019-05-02T21:28:57.319Z,40.75
2019-05-02T21:31:27.493Z,42.55
2019-05-02T21:33:57.831Z,48.63
2019-05-02T21:36:28.353Z,46.42
2019-05-02T21:38:58.531Z,42.58
2019-05-02T21:41:32.836Z,55.60
2019-05-02T21:44:02.513Z,38.80
2019-05-02T21:46:33.898Z,47.03
2019-05-02T21:49:05.006Z,46.50
2019-05-02T21:52:12.381Z,44.05
2019-05-02T21:54:52.293Z,40.10
2019-05-02T21:57:22.762Z,44.13
2019-05-02T22:02:38.092Z,48.73
2019-05-02T22:05:08.536Z,30.75
2019-05-02T22:07:38.766Z,50.05
2019-05-02T22:10:09.487Z,45.57
2019-05-02T22:12:39.976Z,42.62
2019-05-02T22:15:12.901Z,43.05
2019-05-02T22:17:43.204Z,47.88
2019-05-02T22:20:13.447Z,44.93
2019-05-02T22:22:43.673Z,43.17
2019-05-02T22:25:13.837Z,45.20
2019-05-02T22:27:44.192Z,51.00
2019-05-02T22:30:14.471Z,49.75
2019-05-02T22:32:44.618Z,53.85
2019-05-02T22:35:16.381Z,52.13
2019-05-02T22:37:49.664Z,43.68
2019-05-02T22:40:21.674Z,50.03
2019-05-02T22:42:52.347Z,53.42
2019-05-02T22:45:22.576Z,45.98
2019-05-02T22:47:52.715Z,38.15
2019-05-02T22:50:22.856Z,44.27
2019-05-02T22:52:52.997Z,43.28
2019-05-02T22:55:24.173Z,36.60
2019-05-02T22:57:54.311Z,39.38
2019-05-02T23:00:24.592Z,41.60
2019-05-02T23:02:54.808Z,42.48
2019-05-02T23:05:24.943Z,36.33
2019-05-02T23:07:55.080Z,37.10
2019-05-02T23:10:25.195Z,35.90
2019-05-02T23:12:55.371Z,36.00
2019-05-02T23:15:25.494Z,33.50
2019-05-02T23:17:55.663Z,35.65
2019-05-02T23:20:25.849Z,32.40
2019-05-02T23:22:56.194Z,36.50
2019-05-02T23:25:44.492Z,32.03
2019-05-02T23:28:22.169Z,46.53
2019-05-02T23:30:52.604Z,40.13
2019-05-02T23:33:24.482Z,39.03
2019-05-02T23:35:54.646Z,38.42
2019-05-02T23:38:24.840Z,40.58
2019-05-02T23:40:54.974Z,36.68
2019-05-02T23:43:25.141Z,35.13
2019-05-02T23:45:55.247Z,36.85
2019-05-02T23:48:25.441Z,37.70
2019-05-02T23:50:55.598Z,42.08
2019-05-02T23:53:25.885Z,40.98
2019-05-02T23:55:56.054Z,38.95
2019-05-02T23:58:27.477Z,43.78
